createdAt,value
2019-05-20T00:01:53.070Z,100.00
2019-05-20T00:04:56.890Z,100.00
2019-05-20T00:08:00.710Z,100.00
2019-05-20T00:11:04.693Z,100.00
2019-05-20T00:14:08.590Z,100.00
2019-05-20T00:17:12.502Z,100.00
2019-05-20T00:20:16.470Z,100.00
2019-05-20T00:23:20.341Z,100.00
2019-05-20T00:26:24.141Z,100.00
2019-05-20T00:29:28.043Z,100.00
2019-05-20T00:32:40.660Z,100.00
2019-05-20T00:35:37.479Z,100.00
2019-05-20T00:38:41.316Z,100.00
2019-05-20T00:41:45.214Z,100.00
2019-05-20T00:44:49.096Z,100.00
2019-05-20T00:47:53.376Z,100.00
2019-05-20T00:50:57.285Z,100.00
2019-05-20T00:54:01.379Z,100.00
2019-05-20T00:57:05.267Z,100.00
2019-05-20T01:00:09.556Z,100.00
2019-05-20T01:03:13.374Z,100.00
2019-05-20T01:06:17.301Z,100.00
2019-05-20T01:09:21.255Z,100.00
2019-05-20T01:12:25.080Z,100.00
2019-05-20T01:15:29.057Z,100.00
2019-05-20T01:18:32.867Z,100.00
2019-05-20T01:21:36.833Z,100.00
2019-05-20T01:24:40.702Z,100.00
2019-05-20T01:27:44.516Z,100.00
2019-05-20T01:30:48.366Z,100.00
2019-05-20T01:33:52.259Z,100.00
2019-05-20T01:36:56.091Z,100.00
2019-05-20T01:39:59.977Z,100.00
2019-05-20T01:43:03.823Z,100.00
2019-05-20T01:46:07.645Z,100.00
2019-05-20T01:49:11.577Z,100.00
2019-05-20T01:52:15.494Z,100.00
2019-05-20T01:55:19.389Z,100.00
2019-05-20T01:58:23.197Z,100.00
2019-05-20T02:01:27.085Z,100.00
2019-05-20T02:04:30.971Z,100.00
2019-05-20T02:07:34.896Z,100.00
2019-05-20T02:10:38.801Z,100.00
2019-05-20T02:13:55.884Z,100.00
2019-05-20T02:17:02.666Z,100.00
2019-05-20T02:20:06.202Z,100.00
2019-05-20T02:23:16.540Z,100.00
2019-05-20T02:26:20.444Z,100.00
2019-05-20T02:29:24.307Z,100.00
2019-05-20T02:32:28.211Z,100.00
2019-05-20T02:35:32.116Z,100.00
2019-05-20T02:38:35.939Z,100.00
2019-05-20T02:41:39.869Z,100.00
2019-05-20T02:44:43.708Z,100.00
2019-05-20T02:47:47.671Z,100.00
2019-05-20T02:50:51.585Z,100.00
2019-05-20T02:53:55.438Z,100.00
2019-05-20T02:56:59.354Z,100.00
2019-05-20T03:00:03.274Z,100.00
2019-05-20T03:03:07.090Z,100.00
2019-05-20T03:06:10.923Z,100.00
2019-05-20T03:09:14.729Z,100.00
2019-05-20T03:12:18.576Z,100.00
2019-05-20T03:15:22.539Z,100.00
2019-05-20T03:18:26.544Z,100.00
2019-05-20T03:21:30.390Z,100.00
2019-05-20T03:24:34.320Z,100.00
2019-05-20T03:27:38.442Z,100.00
2019-05-20T03:30:43.061Z,100.00
2019-05-20T03:33:46.956Z,100.00
2019-05-20T03:36:50.813Z,100.00
2019-05-20T03:39:54.614Z,100.00
2019-05-20T03:42:58.527Z,100.00
2019-05-20T03:46:02.335Z,100.00
2019-05-20T03:49:06.161Z,100.00
2019-05-20T03:52:09.995Z,100.00
2019-05-20T03:55:14.241Z,100.00
2019-05-20T03:58:19.277Z,100.00
2019-05-20T04:01:24.653Z,100.00
2019-05-20T04:04:29.362Z,100.00
2019-05-20T04:07:33.311Z,100.00
2019-05-20T04:10:37.165Z,100.00
2019-05-20T04:13:41.032Z,100.00
2019-05-20T04:16:44.888Z,100.00
2019-05-20T04:19:48.738Z,100.00
2019-05-20T04:22:52.641Z,100.00
2019-05-20T04:25:56.576Z,100.00
2019-05-20T04:29:00.482Z,100.00
2019-05-20T04:32:04.480Z,100.00
2019-05-20T04:35:21.211Z,100.00
2019-05-20T04:38:14.477Z,100.00
2019-05-20T04:41:18.363Z,100.00
2019-05-20T04:44:22.274Z,100.00
2019-05-20T04:47:26.230Z,100.00
2019-05-20T04:50:30.096Z,100.00
2019-05-20T04:53:34.035Z,100.00
2019-05-20T04:56:38.026Z,100.00
2019-05-20T04:59:41.831Z,100.00
2019-05-20T05:02:45.671Z,100.00
2019-05-20T05:05:50.686Z,100.00
2019-05-20T05:08:54.616Z,100.00
2019-05-20T05:11:58.549Z,100.00
2019-05-20T05:15:07.176Z,100.00
2019-05-20T05:18:08.165Z,100.00
2019-05-20T05:21:12.052Z,100.00
2019-05-20T05:24:16.064Z,100.00
2019-05-20T05:27:20.074Z,100.00
2019-05-20T05:30:24.070Z,100.00
2019-05-20T05:33:28.068Z,100.00
2019-05-20T05:36:31.984Z,100.00
2019-05-20T05:39:35.983Z,100.00
2019-05-20T05:42:39.984Z,100.00
2019-05-20T05:45:43.910Z,100.00
2019-05-20T05:48:47.732Z,100.00
2019-05-20T05:51:51.608Z,100.00
2019-05-20T05:54:55.614Z,100.00
2019-05-20T05:57:59.496Z,100.00
2019-05-20T06:01:03.424Z,100.00
2019-05-20T06:04:07.246Z,100.00
2019-05-20T06:07:11.141Z,100.00
2019-05-20T06:10:15.263Z,100.00
2019-05-20T06:13:19.118Z,100.00
2019-05-20T06:16:35.798Z,100.00
2019-05-20T06:19:28.809Z,100.00
2019-05-20T06:22:32.754Z,100.00
2019-05-20T06:25:36.592Z,100.00
2019-05-20T06:28:40.421Z,100.00
2019-05-20T06:31:44.437Z,100.00
2019-05-20T06:34:48.338Z,100.00
2019-05-20T06:37:55.167Z,100.00
2019-05-20T06:40:58.970Z,100.00
2019-05-20T06:44:02.918Z,100.00
2019-05-20T06:47:06.835Z,100.00
2019-05-20T06:50:10.917Z,100.00
2019-05-20T06:53:14.760Z,100.00
2019-05-20T06:56:18.633Z,100.00
2019-05-20T06:59:22.476Z,100.00
2019-05-20T07:02:26.312Z,100.00
2019-05-20T07:05:30.327Z,100.00
2019-05-20T07:08:35.493Z,100.00
2019-05-20T07:11:39.429Z,100.00
2019-05-20T07:14:43.260Z,100.00
2019-05-20T07:17:47.105Z,100.00
2019-05-20T07:20:50.941Z,100.00
2019-05-20T07:23:54.789Z,100.00
2019-05-20T07:26:58.752Z,100.00
2019-05-20T07:30:02.613Z,100.00
2019-05-20T07:33:06.553Z,100.00
2019-05-20T07:36:10.397Z,100.00
2019-05-20T07:39:14.306Z,100.00
2019-05-20T07:42:18.283Z,100.00
2019-05-20T07:45:22.279Z,100.00
2019-05-20T07:48:26.889Z,100.00
2019-05-20T07:51:31.388Z,100.00
2019-05-20T07:54:35.900Z,100.00
2019-05-20T07:57:41.356Z,100.00
2019-05-20T08:00:45.283Z,100.00
2019-05-20T08:03:49.213Z,100.00
2019-05-20T08:06:53.226Z,100.00
2019-05-20T08:09:57.086Z,100.00
2019-05-20T08:13:01.013Z,100.00
2019-05-20T08:16:04.927Z,100.00
2019-05-20T08:19:08.854Z,100.00
2019-05-20T08:22:12.819Z,99.87
2019-05-20T08:25:16.805Z,100.00
2019-05-20T08:28:20.730Z,100.00
2019-05-20T08:31:24.578Z,100.00
2019-05-20T08:34:28.540Z,100.00
2019-05-20T08:37:44.840Z,98.70
2019-05-20T08:40:38.113Z,97.82
2019-05-20T08:43:41.924Z,98.83
2019-05-20T08:46:45.780Z,96.86
2019-05-20T08:49:49.999Z,96.19
2019-05-20T08:52:54.101Z,95.31
2019-05-20T08:55:58.050Z,93.60
2019-05-20T08:59:01.912Z,91.12
2019-05-20T09:02:05.926Z,90.76
2019-05-20T09:05:09.904Z,92.24
2019-05-20T09:08:13.826Z,92.29
2019-05-20T09:11:17.831Z,91.61
2019-05-20T09:14:21.654Z,91.74
2019-05-20T09:17:25.520Z,91.96
2019-05-20T09:20:29.476Z,91.14
2019-05-20T09:23:33.405Z,91.12
2019-05-20T09:26:37.336Z,90.70
2019-05-20T09:29:41.589Z,89.45
2019-05-20T09:32:45.667Z,88.55
2019-05-20T09:35:49.899Z,87.91
2019-05-20T09:38:53.765Z,86.14
2019-05-20T09:41:57.655Z,83.78
2019-05-20T09:45:03.195Z,84.32
2019-05-20T09:48:07.617Z,84.59
2019-05-20T09:51:11.519Z,82.20
2019-05-20T09:54:15.399Z,82.79
2019-05-20T09:57:19.323Z,83.74
2019-05-20T10:00:23.395Z,81.92
2019-05-20T10:03:27.241Z,81.04
2019-05-20T10:06:31.155Z,79.46
2019-05-20T10:09:34.960Z,81.64
2019-05-20T10:12:45.960Z,81.30
2019-05-20T10:15:44.574Z,80.69
2019-05-20T10:18:48.400Z,78.76
2019-05-20T10:21:52.236Z,79.46
2019-05-20T10:24:56.092Z,78.99
2019-05-20T10:27:59.949Z,79.84
2019-05-20T10:31:03.902Z,79.14
2019-05-20T10:34:07.804Z,78.46
2019-05-20T10:37:11.644Z,76.23
2019-05-20T10:40:15.704Z,76.48
2019-05-20T10:43:19.616Z,74.39
2019-05-20T10:46:23.443Z,75.65
2019-05-20T10:49:27.303Z,76.12
2019-05-20T10:52:31.185Z,77.20
2019-05-20T10:55:35.036Z,76.51
2019-05-20T10:58:38.971Z,76.71
2019-05-20T11:01:42.849Z,77.42
2019-05-20T11:04:46.909Z,78.84
2019-05-20T11:07:50.918Z,78.24
2019-05-20T11:10:54.717Z,77.11
2019-05-20T11:13:58.616Z,76.84
2019-05-20T11:17:02.603Z,77.28
2019-05-20T11:20:06.794Z,75.83
2019-05-20T11:23:10.627Z,73.30
2019-05-20T11:26:14.577Z,73.60
2019-05-20T11:29:18.629Z,73.17
2019-05-20T11:32:22.640Z,74.06
2019-05-20T11:35:26.627Z,74.12
2019-05-20T11:38:30.505Z,74.16
2019-05-20T11:41:52.607Z,73.00
2019-05-20T11:44:41.238Z,70.47
2019-05-20T11:47:45.102Z,70.85
2019-05-20T11:50:48.959Z,72.04
2019-05-20T11:53:52.880Z,73.18
2019-05-20T11:56:56.724Z,72.84
2019-05-20T12:00:07.327Z,71.42
2019-05-20T12:03:11.404Z,71.96
2019-05-20T12:06:15.267Z,72.33
2019-05-20T12:09:19.087Z,69.48
2019-05-20T12:12:22.988Z,69.48
2019-05-20T12:15:26.957Z,70.20
2019-05-20T12:18:30.833Z,68.55
2019-05-20T12:21:34.723Z,69.96
2019-05-20T12:24:38.587Z,67.78
2019-05-20T12:27:42.437Z,67.60
2019-05-20T12:30:46.299Z,69.79
2019-05-20T12:33:50.202Z,70.63
2019-05-20T12:36:54.050Z,70.63
2019-05-20T12:40:06.961Z,67.84
2019-05-20T12:43:03.415Z,67.84
2019-05-20T12:46:07.304Z,67.90
2019-05-20T12:49:11.332Z,68.56
2019-05-20T12:52:15.180Z,67.97
2019-05-20T12:55:19.284Z,67.94
2019-05-20T12:58:23.204Z,69.11
2019-05-20T13:01:27.064Z,66.46
2019-05-20T13:04:30.915Z,67.16
2019-05-20T13:07:34.727Z,66.51
2019-05-20T13:10:38.663Z,66.18
2019-05-20T13:13:42.465Z,66.66
2019-05-20T13:16:46.379Z,64.37
2019-05-20T13:19:50.215Z,64.37
2019-05-20T13:22:54.123Z,67.77
2019-05-20T13:25:57.959Z,67.77
2019-05-20T13:29:01.911Z,67.07
2019-05-20T13:32:05.839Z,68.63
2019-05-20T13:35:09.912Z,64.10
2019-05-20T13:38:13.838Z,64.97
2019-05-20T13:41:17.729Z,63.81
2019-05-20T13:44:21.605Z,64.97
2019-05-20T13:47:25.450Z,62.96
2019-05-20T13:50:29.409Z,64.10
2019-05-20T13:53:33.236Z,66.41
2019-05-20T13:56:37.444Z,65.01
2019-05-20T13:59:41.284Z,64.80
2019-05-20T14:02:45.115Z,64.86
2019-05-20T14:05:48.977Z,64.36
2019-05-20T14:08:52.830Z,64.99
2019-05-20T14:11:56.653Z,62.81
2019-05-20T14:15:00.475Z,62.88
2019-05-20T14:18:04.403Z,63.66
2019-05-20T14:21:08.337Z,63.55
2019-05-20T14:24:12.271Z,63.65
2019-05-20T14:27:16.109Z,64.56
2019-05-20T14:30:20.181Z,65.17
2019-05-20T14:33:24.025Z,62.77
2019-05-20T14:36:39.489Z,62.74
2019-05-20T14:39:33.492Z,60.33
2019-05-20T14:42:37.417Z,59.66
2019-05-20T14:45:41.363Z,59.25
2019-05-20T14:48:45.174Z,58.32
2019-05-20T14:51:49.013Z,58.61
2019-05-20T14:54:52.948Z,58.34
2019-05-20T14:57:58.723Z,59.32
2019-05-20T15:01:02.511Z,59.03
2019-05-20T15:04:06.382Z,56.57
2019-05-20T15:07:10.341Z,56.84
2019-05-20T15:10:14.524Z,57.89
2019-05-20T15:13:18.421Z,58.25
2019-05-20T15:16:22.344Z,55.47
2019-05-20T15:19:26.363Z,56.44
2019-05-20T15:22:30.187Z,56.38
2019-05-20T15:25:34.248Z,57.86
2019-05-20T15:28:38.324Z,58.02
2019-05-20T15:31:42.413Z,56.28
2019-05-20T15:34:46.676Z,55.55
2019-05-20T15:37:51.223Z,53.69
2019-05-20T15:40:55.119Z,51.74
2019-05-20T15:43:59.104Z,51.35
2019-05-20T15:47:02.960Z,50.34
2019-05-20T15:50:10.245Z,50.04
2019-05-20T15:53:14.023Z,49.61
2019-05-20T15:56:18.181Z,49.50
2019-05-20T15:59:22.122Z,48.98
2019-05-20T16:02:26.013Z,49.80
2019-05-20T16:05:29.925Z,50.08
2019-05-20T16:08:33.797Z,50.09
2019-05-20T16:11:38.180Z,49.36
2019-05-20T16:14:42.302Z,49.33
2019-05-20T16:17:48.465Z,51.41
2019-05-20T16:20:52.021Z,52.46
2019-05-20T16:23:58.601Z,53.87
2019-05-20T16:27:03.602Z,54.21
2019-05-20T16:30:12.787Z,54.07
2019-05-20T16:33:16.964Z,56.40
2019-05-20T16:36:21.114Z,56.72
2019-05-20T16:39:25.682Z,57.39
2019-05-20T16:42:29.918Z,58.17
2019-05-20T16:45:35.776Z,57.91
2019-05-20T16:48:39.754Z,57.22
2019-05-20T16:51:43.794Z,56.75
2019-05-20T16:54:47.769Z,57.37
2019-05-20T16:57:52.109Z,57.78
2019-05-20T17:00:57.678Z,57.78
2019-05-20T17:04:01.675Z,57.82
2019-05-20T17:07:05.622Z,58.43
2019-05-20T17:10:10.313Z,58.74
2019-05-20T17:13:14.328Z,58.23
2019-05-20T17:16:18.354Z,58.94
2019-05-20T17:19:22.306Z,57.76
2019-05-20T17:22:26.204Z,58.69
2019-05-20T17:25:30.069Z,58.80
2019-05-20T17:28:33.954Z,59.07
2019-05-20T17:31:57.260Z,59.13
2019-05-20T17:35:01.580Z,58.16
2019-05-20T17:38:44.885Z,58.69
2019-05-20T17:42:17.212Z,58.56
2019-05-20T17:45:54.966Z,58.96
2019-05-20T17:49:15.507Z,58.99
2019-05-20T17:52:19.864Z,58.59
2019-05-20T17:55:24.813Z,58.69
2019-05-20T17:58:51.552Z,59.42
2019-05-20T18:02:11.627Z,59.47
2019-05-20T18:05:45.761Z,60.92
2019-05-20T18:09:11.317Z,59.90
2019-05-20T18:12:31.635Z,59.43
2019-05-20T18:15:45.611Z,60.41
2019-05-20T18:18:49.691Z,60.55
2019-05-20T18:21:53.549Z,61.99
2019-05-20T18:24:58.040Z,61.90
2019-05-20T18:28:01.918Z,60.43
2019-05-20T18:31:05.772Z,60.19
2019-05-20T18:34:09.595Z,60.77
2019-05-20T18:37:14.121Z,60.55
2019-05-20T18:40:18.193Z,62.26
2019-05-20T18:43:22.166Z,63.20
2019-05-20T18:46:26.080Z,63.15
2019-05-20T18:49:29.914Z,63.97
2019-05-20T18:52:33.837Z,63.50
2019-05-20T18:55:37.770Z,63.58
2019-05-20T18:58:41.666Z,64.33
2019-05-20T19:01:55.964Z,64.40
2019-05-20T19:04:51.571Z,64.48
2019-05-20T19:07:55.905Z,64.84
2019-05-20T19:11:00.406Z,65.26
2019-05-20T19:14:08.312Z,66.36
2019-05-20T19:17:10.830Z,65.94
2019-05-20T19:20:14.806Z,66.80
2019-05-20T19:23:18.772Z,67.62
2019-05-20T19:26:25.309Z,67.07
2019-05-20T19:29:29.375Z,67.27
2019-05-20T19:32:34.601Z,67.94
2019-05-20T19:35:39.957Z,68.36
2019-05-20T19:38:43.927Z,68.26
2019-05-20T19:41:49.703Z,68.86
2019-05-20T19:44:54.208Z,69.48
2019-05-20T19:48:32.582Z,70.28
2019-05-20T19:51:36.847Z,70.65
2019-05-20T19:54:41.037Z,70.88
2019-05-20T19:57:45.460Z,71.70
2019-05-20T20:00:49.871Z,71.98
2019-05-20T20:03:53.686Z,72.62
2019-05-20T20:06:57.576Z,72.98
2019-05-20T20:10:01.865Z,73.67
2019-05-20T20:13:06.259Z,74.29
2019-05-20T20:16:10.299Z,74.83
2019-05-20T20:19:14.493Z,75.02
2019-05-20T20:22:18.421Z,75.06
2019-05-20T20:25:22.649Z,75.30
2019-05-20T20:28:27.106Z,75.92
2019-05-20T20:31:31.240Z,76.23
2019-05-20T20:34:35.285Z,76.68
2019-05-20T20:37:39.765Z,77.10
2019-05-20T20:40:43.772Z,77.42
2019-05-20T20:43:47.596Z,77.63
2019-05-20T20:46:51.513Z,78.01
2019-05-20T20:49:58.428Z,78.35
2019-05-20T20:53:02.540Z,78.68
2019-05-20T20:56:06.736Z,79.00
2019-05-20T20:59:10.926Z,79.34
2019-05-20T21:02:14.969Z,79.59
2019-05-20T21:05:18.868Z,79.82
2019-05-20T21:08:25.790Z,80.03
2019-05-20T21:11:30.288Z,80.25
2019-05-20T21:14:34.494Z,80.52
2019-05-20T21:17:38.723Z,80.71
2019-05-20T21:20:42.510Z,80.98
2019-05-20T21:23:46.510Z,81.19
2019-05-20T21:26:50.316Z,81.61
2019-05-20T21:30:00.748Z,81.77
2019-05-20T21:33:09.242Z,81.94
2019-05-20T21:36:11.867Z,82.25
2019-05-20T21:39:16.302Z,82.65
2019-05-20T21:42:20.681Z,82.94
2019-05-20T21:45:24.519Z,83.46
2019-05-20T21:48:28.809Z,83.80
2019-05-20T21:51:32.828Z,84.30
2019-05-20T21:54:36.768Z,84.68
2019-05-20T21:57:41.006Z,84.92
2019-05-20T22:00:53.806Z,84.98
2019-05-20T22:03:57.826Z,85.30
2019-05-20T22:07:04.806Z,85.69
2019-05-20T22:10:09.777Z,85.59
2019-05-20T22:13:14.499Z,86.16
2019-05-20T22:16:19.255Z,86.10
2019-05-20T22:19:23.320Z,86.81
2019-05-20T22:22:35.717Z,87.04
2019-05-20T22:25:39.534Z,87.37
2019-05-20T22:28:43.475Z,87.64
2019-05-20T22:31:47.372Z,87.76
2019-05-20T22:34:53.717Z,87.92
2019-05-20T22:37:56.820Z,88.22
2019-05-20T22:41:00.741Z,88.27
2019-05-20T22:44:04.702Z,88.42
2019-05-20T22:47:08.604Z,88.52
2019-05-20T22:50:12.495Z,88.75
2019-05-20T22:53:16.352Z,89.14
2019-05-20T22:56:20.940Z,89.38
2019-05-20T22:59:24.742Z,89.75
2019-05-20T23:02:28.550Z,90.41
2019-05-20T23:05:32.372Z,90.50
2019-05-20T23:08:36.249Z,90.61
2019-05-20T23:11:40.144Z,90.82
2019-05-20T23:14:44.018Z,90.96
2019-05-20T23:17:47.909Z,91.01
2019-05-20T23:20:51.759Z,91.36
2019-05-20T23:23:55.644Z,91.44
2019-05-20T23:26:59.470Z,91.38
2019-05-20T23:30:03.521Z,91.42
2019-05-20T23:33:07.368Z,91.58
2019-05-20T23:36:11.286Z,91.85
2019-05-20T23:39:15.106Z,91.89
2019-05-20T23:42:19.017Z,92.26
2019-05-20T23:45:22.942Z,92.58
2019-05-20T23:48:26.864Z,92.41
2019-05-20T23:51:30.716Z,90.61
2019-05-20T23:54:34.546Z,90.91
2019-05-20T23:57:38.372Z,91.79
